createdAt,value
2019-03-28T00:03:58.313Z,34.30
2019-03-28T00:14:03.299Z,34.17
2019-03-28T00:24:12.487Z,26.47
2019-03-28T00:34:17.479Z,32.45
2019-03-28T00:44:22.476Z,35.33
2019-03-28T00:54:27.575Z,39.83
2019-03-28T01:04:32.566Z,31.60
2019-03-28T01:14:37.554Z,37.03
2019-03-28T01:24:42.661Z,32.57
2019-03-28T01:34:47.761Z,34.40
2019-03-28T01:44:52.843Z,36.80
2019-03-28T01:54:58.960Z,37.83
2019-03-28T02:05:07.066Z,37.70
2019-03-28T02:15:12.231Z,35.08
2019-03-28T02:25:17.435Z,28.55
2019-03-28T02:35:22.425Z,33.10
2019-03-28T02:45:27.412Z,34.80
2019-03-28T02:55:32.404Z,32.27
2019-03-28T03:05:37.437Z,37.27
2019-03-28T03:15:42.493Z,37.03
2019-03-28T03:25:47.603Z,36.60
2019-03-28T03:35:52.585Z,35.73
2019-03-28T03:45:57.686Z,32.90
2019-03-28T03:56:02.660Z,36.30
2019-03-28T04:06:07.781Z,40.47
2019-03-28T04:16:12.665Z,32.23
2019-03-28T04:26:17.705Z,34.20
2019-03-28T04:36:22.649Z,34.27
2019-03-28T04:46:27.651Z,33.27
2019-03-28T04:56:32.626Z,36.90
2019-03-28T05:06:38.144Z,36.13
2019-03-28T05:16:43.453Z,33.50
2019-03-28T05:26:48.524Z,38.37
2019-03-28T05:36:53.533Z,57.57
2019-03-28T05:46:59.551Z,43.93
2019-03-28T05:57:05.265Z,43.67
2019-03-28T06:07:10.401Z,46.88
2019-03-28T06:17:15.655Z,48.10
2019-03-28T06:27:20.851Z,29.73
2019-03-28T06:37:25.950Z,28.87
2019-03-28T06:47:30.935Z,27.03
2019-03-28T06:57:36.051Z,24.00
2019-03-28T07:07:41.041Z,39.00
2019-03-28T07:17:46.016Z,30.63
2019-03-28T07:27:51.018Z,21.20
2019-03-28T07:37:56.015Z,23.70
2019-03-28T07:48:01.206Z,24.57
2019-03-28T07:58:08.604Z,31.20
2019-03-28T08:08:15.287Z,31.57
2019-03-28T08:18:23.600Z,35.78
2019-03-28T08:28:27.022Z,35.53
2019-03-28T08:38:34.189Z,46.53
2019-03-28T08:48:39.254Z,50.13
2019-03-28T08:58:44.347Z,46.30
2019-03-28T09:08:49.562Z,72.53
2019-03-28T09:18:54.587Z,33.33
2019-03-28T09:28:59.561Z,73.97
2019-03-28T09:39:07.733Z,114.55
2019-03-28T09:49:12.705Z,71.33
2019-03-28T09:59:17.687Z,53.33
2019-03-28T10:09:22.677Z,26.03
2019-03-28T10:19:27.688Z,29.87
2019-03-28T10:29:32.683Z,21.10
2019-03-28T10:39:37.674Z,34.63
2019-03-28T10:49:42.783Z,27.63
2019-03-28T10:59:47.730Z,17.43
2019-03-28T11:09:52.755Z,15.63
2019-03-28T11:19:57.849Z,14.67
2019-03-28T11:30:02.859Z,14.35
2019-03-28T11:40:10.151Z,51.50
2019-03-28T11:50:17.275Z,19.77
2019-03-28T12:00:22.748Z,11.25
2019-03-28T12:10:27.833Z,16.12
2019-03-28T12:20:32.861Z,21.57
2019-03-28T12:30:37.945Z,15.28
2019-03-28T12:40:42.934Z,14.13
2019-03-28T12:50:58.210Z,10.65
2019-03-28T13:00:54.715Z,13.48
2019-03-28T13:10:59.764Z,16.10
2019-03-28T13:21:13.269Z,21.55
2019-03-28T13:31:12.200Z,15.98
2019-03-28T13:41:17.545Z,37.15
2019-03-28T13:51:22.775Z,19.20
2019-03-28T14:01:27.773Z,14.70
2019-03-28T14:11:32.888Z,32.73
2019-03-28T14:21:37.959Z,17.50
2019-03-28T14:31:43.179Z,20.97
2019-03-28T14:41:49.055Z,35.30
2019-03-28T14:51:54.188Z,35.00
2019-03-28T15:01:59.168Z,34.43
2019-03-28T15:12:04.424Z,17.10
2019-03-28T15:22:09.682Z,15.43
2019-03-28T15:32:14.971Z,23.97
2019-03-28T15:42:20.158Z,34.87
2019-03-28T15:52:27.476Z,34.70
2019-03-28T16:02:32.401Z,32.73
2019-03-28T16:12:37.593Z,43.27
2019-03-28T16:22:42.937Z,129.37
2019-03-28T16:32:48.216Z,136.03
2019-03-28T16:42:53.430Z,95.93
2019-03-28T16:52:58.502Z,92.77
2019-03-28T17:03:04.007Z,89.37
2019-03-28T17:13:09.343Z,79.80
2019-03-28T17:23:14.819Z,62.37
2019-03-28T17:33:20.623Z,70.73
2019-03-28T17:43:25.899Z,81.57
2019-03-28T17:53:31.208Z,77.80
2019-03-28T18:03:36.383Z,98.15
2019-03-28T18:13:41.725Z,127.83
2019-03-28T18:23:47.009Z,116.67
2019-03-28T18:33:52.512Z,137.85
2019-03-28T18:43:57.636Z,81.70
2019-03-28T18:54:02.776Z,113.83
2019-03-28T19:04:08.211Z,102.30
2019-03-28T19:14:13.532Z,111.83
2019-03-28T19:24:19.001Z,94.03
2019-03-28T19:34:24.374Z,156.17
2019-03-28T19:44:30.743Z,169.63
2019-03-28T19:54:36.206Z,223.20
2019-03-28T20:04:41.714Z,205.90
2019-03-28T20:14:47.111Z,174.30
2019-03-28T20:24:53.946Z,173.43
2019-03-28T20:35:00.841Z,202.60
2019-03-28T20:45:10.811Z,188.20
2019-03-28T20:55:16.576Z,184.03
2019-03-28T21:05:23.375Z,182.90
2019-03-28T21:15:28.926Z,158.10
2019-03-28T21:25:34.427Z,154.50
2019-03-28T21:35:39.919Z,225.97
2019-03-28T21:45:45.176Z,164.90
2019-03-28T21:55:55.456Z,167.73
2019-03-28T22:05:57.337Z,126.12
2019-03-28T22:16:02.437Z,122.70
2019-03-28T22:26:07.435Z,127.13
2019-03-28T22:36:12.538Z,134.57
2019-03-28T22:46:17.506Z,141.45
2019-03-28T22:56:22.932Z,179.20
2019-03-28T23:06:28.646Z,116.63
2019-03-28T23:16:34.757Z,105.10
2019-03-28T23:26:39.750Z,97.27
2019-03-28T23:36:44.828Z,97.37
2019-03-28T23:46:50.867Z,97.82
2019-03-28T23:56:55.966Z,111.35
